Time;durP1;ratioP1;P1;durP2;ratioP2;P2;SDS_P1;SDS_P2;PMS_P1;PMS_P2;Temp;Humidity;BMP_temperature;BMP_pressure;BME280_temperature;BME280_humidity;BME280_pressure;Samples;Min_cycle;Max_cycle;Signal;HPM_P1;HPM_P2
2023/09/14 00:00:21;;;;;;;2.75;1.38;;;14.10;99.90;;;;;;5110026;28;20027;-55
2023/09/14 00:02:47;;;;;;;3.67;1.48;;;12.20;99.90;;;;;;5110675;28;20122;-46
2023/09/14 00:05:12;;;;;;;6.75;1.73;;;12.30;99.90;;;;;;5113873;27;20051;-49
2023/09/14 00:07:38;;;;;;;3.97;1.48;;;;;;;;;;5091877;28;20391;-53
2023/09/14 00:10:04;;;;;;;5.00;1.55;;;15.10;99.90;;;;;;5110547;28;20031;-54
2023/09/14 00:12:30;;;;;;;5.25;1.92;;;;;;;;;;5110112;28;20111;-52
2023/09/14 00:14:56;;;;;;;6.30;1.98;;;12.70;99.90;;;;;;5110755;27;20102;-50
2023/09/14 00:17:21;;;;;;;5.85;2.50;;;11.80;99.90;;;;;;5109918;28;20035;-53
2023/09/14 00:19:47;;;;;;;3.63;1.45;;;14.60;99.90;;;;;;5110294;28;20025;-51
2023/09/14 00:22:13;;;;;;;3.05;1.70;;;15.30;99.90;;;;;;5114093;28;20073;-53
2023/09/14 00:24:38;;;;;;;3.47;1.88;;;15.00;99.90;;;;;;5095998;28;20035;-45
2023/09/14 00:27:04;;;;;;;2.55;1.30;;;14.30;99.90;;;;;;5112220;27;20031;-52
2023/09/14 00:29:29;;;;;;;6.45;1.80;;;13.90;99.90;;;;;;5129475;27;20070;-56
2023/09/14 00:31:55;;;;;;;3.75;1.50;;;14.20;99.90;;;;;;5113841;27;20011;-48
2023/09/14 00:34:21;;;;;;;7.10;1.88;;;14.20;99.90;;;;;;5113905;27;20038;-56
2023/09/14 00:36:47;;;;;;;2.78;1.42;;;;;;;;;;5101155;27;20031;-50
2023/09/14 00:39:12;;;;;;;3.78;1.35;;;11.60;99.90;;;;;;5117866;27;20121;-51
2023/09/14 00:41:38;;;;;;;6.93;1.60;;;14.80;99.90;;;;;;5114046;28;20028;-48
2023/09/14 00:44:04;;;;;;;2.92;1.30;;;11.30;99.90;;;;;;5114089;28;20035;-55
2023/09/14 00:46:30;;;;;;;3.45;1.58;;;14.90;99.90;;;;;;5119137;27;20036;-57
2023/09/14 00:48:56;;;;;;;6.43;1.95;;;14.00;99.90;;;;;;5115187;27;20034;-56
2023/09/14 00:51:22;;;;;;;4.18;1.70;;;;;;;;;;5126680;27;20043;-47
2023/09/14 00:53:50;;;;;;;4.65;1.70;;;11.00;99.90;;;;;;5126034;27;20064;-50
2023/09/14 00:56:16;;;;;;;5.95;1.95;;;14.80;99.90;;;;;;5118840;27;20027;-49
2023/09/14 00:58:42;;;;;;;2.92;1.42;;;14.70;99.90;;;;;;5118859;27;20038;-45
2023/09/14 01:01:08;;;;;;;4.05;1.77;;;12.00;99.90;;;;;;5114433;27;20016;-48
2023/09/14 01:03:33;;;;;;;4.50;1.60;;;14.20;99.90;;;;;;5119265;27;20016;-53
2023/09/14 01:05:59;;;;;;;3.88;1.90;;;14.40;99.90;;;;;;5124914;27;20652;-46
2023/09/14 01:08:25;;;;;;;3.97;1.58;;;15.00;99.90;;;;;;5121213;27;20035;-51
2023/09/14 01:10:51;;;;;;;4.82;1.80;;;14.70;99.90;;;;;;5113466;28;20023;-51
2023/09/14 01:14:08;;;;;;;3.80;1.98;;;15.00;99.90;;;;;;5119569;27;20074;-50
2023/09/14 01:16:42;;;;;;;5.07;2.13;;;15.80;99.90;;;;;;5114016;27;20088;-48
2023/09/14 01:19:30;;;;;;;6.15;2.25;;;13.80;99.90;;;;;;5115047;27;20391;-52
2023/09/14 01:22:10;;;;;;;2.75;1.50;;;15.10;99.90;;;;;;5119357;27;20110;-53
2023/09/14 01:24:49;;;;;;;9.30;2.28;;;15.20;99.90;;;;;;5121695;27;20023;-54
2023/09/14 01:27:15;;;;;;;5.43;1.88;;;14.80;99.90;;;;;;5124052;27;20076;-53
2023/09/14 01:29:41;;;;;;;2.95;1.70;;;14.60;99.90;;;;;;5133340;27;20039;-54
2023/09/14 01:32:07;;;;;;;3.15;1.80;;;13.00;99.90;;;;;;5133175;27;20041;-49
2023/09/14 01:34:33;;;;;;;4.95;1.92;;;12.80;99.90;;;;;;5133246;27;20072;-52
2023/09/14 01:37:02;;;;;;;8.82;1.95;;;11.30;99.90;;;;;;5132651;27;20504;-51
2023/09/14 01:39:29;;;;;;;5.30;2.00;;;16.30;99.90;;;;;;5129197;27;20608;-52
2023/09/14 01:41:56;;;;;;;3.05;1.80;;;14.80;99.90;;;;;;5133256;27;20059;-54
2023/09/14 01:44:27;;;;;;;2.67;1.73;;;16.30;99.90;;;;;;5133080;27;20084;-49
2023/09/14 01:46:56;;;;;;;6.13;2.25;;;15.60;99.90;;;;;;5133305;27;20027;-52
2023/09/14 01:49:22;;;;;;;5.70;2.28;;;14.90;99.90;;;;;;5133494;27;20039;-53
2023/09/14 01:51:48;;;;;;;5.60;2.10;;;15.40;99.90;;;;;;5132797;27;20016;-53
2023/09/14 01:54:13;;;;;;;3.30;1.67;;;14.20;99.90;;;;;;5132727;27;20105;-54
2023/09/14 01:56:40;;;;;;;3.80;1.90;;;13.50;99.90;;;;;;5132967;27;20418;-47
2023/09/14 01:59:06;;;;;;;8.05;2.08;;;;;;;;;;5133139;27;20076;-44
2023/09/14 02:01:32;;;;;;;4.68;1.75;;;13.50;99.90;;;;;;5132653;27;20031;-54
2023/09/14 02:03:57;;;;;;;4.00;1.70;;;11.10;99.90;;;;;;5132284;27;20019;-44
2023/09/14 02:06:23;;;;;;;8.18;2.50;;;11.10;99.90;;;;;;5132856;27;20057;-50
2023/09/14 02:08:48;;;;;;;4.88;1.80;;;9.90;99.90;;;;;;5132461;27;20055;-54
2023/09/14 02:11:14;;;;;;;5.25;1.85;;;12.20;99.90;;;;;;5132232;27;20027;-44
2023/09/14 02:13:40;;;;;;;2.67;1.85;;;10.80;99.90;;;;;;5132104;27;20019;-44
2023/09/14 02:16:06;;;;;;;5.07;1.55;;;10.90;99.90;;;;;;5132984;27;20023;-50
2023/09/14 02:18:32;;;;;;;5.00;1.80;;;11.20;99.90;;;;;;5132387;27;20027;-50
2023/09/14 02:20:57;;;;;;;4.53;1.65;;;15.50;99.90;;;;;;5132700;27;20426;-41
2023/09/14 02:23:23;;;;;;;3.53;1.58;;;15.00;99.90;;;;;;5132520;27;20455;-54
2023/09/14 02:25:49;;;;;;;5.88;1.80;;;14.40;99.90;;;;;;5130169;27;20094;-54
2023/09/14 02:28:15;;;;;;;3.95;2.10;;;13.80;99.90;;;;;;5119756;27;20035;-56
2023/09/14 02:30:42;;;;;;;3.78;1.63;;;15.70;99.90;;;;;;5132158;27;20152;-50
2023/09/14 02:33:08;;;;;;;3.47;1.75;;;15.20;99.90;;;;;;5117938;27;20390;-51
2023/09/14 02:35:34;;;;;;;3.13;1.50;;;10.10;99.90;;;;;;5131898;27;20030;-49
2023/09/14 02:38:00;;;;;;;3.05;1.52;;;;;;;;;;5131229;27;20047;-47
2023/09/14 02:40:26;;;;;;;8.10;1.55;;;15.50;99.90;;;;;;5131997;27;20687;-51
2023/09/14 02:42:51;;;;;;;5.60;1.55;;;10.60;99.90;;;;;;5131681;27;20031;-55
2023/09/14 02:45:17;;;;;;;3.15;1.42;;;10.30;99.90;;;;;;5109875;27;20118;-56
2023/09/14 02:47:43;;;;;;;2.33;1.27;;;12.40;99.90;;;;;;5125628;27;20031;-51
2023/09/14 02:50:08;;;;;;;3.38;1.30;;;13.80;99.90;;;;;;5110526;27;20031;-53
2023/09/14 02:52:34;;;;;;;7.63;1.50;;;13.40;99.90;;;;;;5132133;27;20489;-57
2023/09/14 02:55:00;;;;;;;3.92;1.02;;;;;;;;;;5121500;27;20028;-50
2023/09/14 02:57:25;;;;;;;3.42;1.35;;;13.30;99.90;;;;;;5127515;27;20125;-57
2023/09/14 02:59:55;;;;;;;3.90;1.50;;;14.70;99.90;;;;;;5131372;27;20404;-59
2023/09/14 03:02:24;;;;;;;3.45;1.15;;;9.80;99.90;;;;;;5131188;27;20050;-51
2023/09/14 03:04:50;;;;;;;2.67;1.52;;;;;;;;;;5121378;27;20019;-50
2023/09/14 03:07:16;;;;;;;2.72;1.30;;;13.60;99.90;;;;;;5131824;27;20491;-53
2023/09/14 03:09:42;;;;;;;2.38;1.38;;;13.90;99.90;;;;;;5131048;27;20083;-44
2023/09/14 03:12:08;;;;;;;6.13;1.75;;;13.80;99.90;;;;;;5131561;27;20023;-55
2023/09/14 03:14:34;;;;;;;5.82;1.42;;;14.10;99.90;;;;;;5131252;27;20035;-49
2023/09/14 03:16:59;;;;;;;3.40;1.27;;;11.00;99.90;;;;;;5131678;27;20110;-53
2023/09/14 03:19:25;;;;;;;1.73;1.13;;;9.80;99.90;;;;;;5130848;27;20110;-49
2023/09/14 03:21:51;;;;;;;3.97;1.73;;;13.80;99.90;;;;;;5127449;27;20421;-51
2023/09/14 03:24:17;;;;;;;5.32;1.60;;;12.90;99.90;;;;;;5131461;27;20035;-54
2023/09/14 03:26:42;;;;;;;5.28;1.40;;;10.10;99.90;;;;;;5131457;27;20126;-47
2023/09/14 03:29:08;;;;;;;5.03;1.92;;;13.70;99.90;;;;;;5131187;27;20472;-51
2023/09/14 03:31:35;;;;;;;3.50;1.73;;;9.80;99.90;;;;;;5130817;27;20391;-56
2023/09/14 03:34:00;;;;;;;3.53;1.58;;;12.80;99.90;;;;;;5130767;27;20479;-49
2023/09/14 03:36:27;;;;;;;2.22;1.42;;;9.70;99.90;;;;;;5130612;27;20027;-58
2023/09/14 03:38:52;;;;;;;7.80;2.42;;;12.40;99.90;;;;;;5131295;27;20023;-44
2023/09/14 03:41:18;;;;;;;3.40;1.70;;;9.70;99.90;;;;;;5131252;28;20031;-52
2023/09/14 03:43:44;;;;;;;4.22;1.70;;;13.60;99.90;;;;;;5130794;28;20030;-47
2023/09/14 03:46:12;;;;;;;4.13;1.70;;;9.60;99.90;;;;;;5131005;27;20498;-52
2023/09/14 03:48:38;;;;;;;4.15;1.98;;;13.90;99.90;;;;;;5127077;28;20667;-52
2023/09/14 03:51:04;;;;;;;4.00;2.17;;;13.80;99.90;;;;;;5131097;27;20055;-53
2023/09/14 03:53:29;;;;;;;3.95;1.60;;;12.80;99.90;;;;;;5130818;27;20395;-58
2023/09/14 03:55:55;;;;;;;4.75;2.05;;;;;;;;;;5128641;28;20032;-50
2023/09/14 03:58:23;;;;;;;6.78;1.88;;;9.50;99.90;;;;;;5130718;28;20031;-54
2023/09/14 04:00:48;;;;;;;3.72;1.95;;;13.20;99.90;;;;;;5114147;27;20019;-49
2023/09/14 04:03:17;;;;;;;3.10;1.65;;;14.20;99.90;;;;;;5134882;27;20035;-49
2023/09/14 04:05:43;;;;;;;6.20;2.03;;;11.80;99.90;;;;;;5135109;27;20491;-54
2023/09/14 04:08:09;;;;;;;4.65;1.58;;;;;;;;;;5134994;27;20120;-49
2023/09/14 04:10:38;;;;;;;3.00;1.20;;;9.70;99.90;;;;;;5116825;27;20184;-50
2023/09/14 04:13:27;;;;;;;2.15;1.27;;;13.60;99.90;;;;;;5134990;27;20413;-55
2023/09/14 04:15:53;;;;;;;3.30;1.70;;;14.00;99.90;;;;;;5134993;27;20035;-53
2023/09/14 04:18:19;;;;;;;3.40;1.75;;;9.90;99.90;;;;;;5134979;27;20272;-56
2023/09/14 04:20:46;;;;;;;4.05;1.80;;;12.90;99.90;;;;;;5134899;27;20104;-43
2023/09/14 04:23:12;;;;;;;10.32;1.60;;;12.80;99.90;;;;;;5134681;27;20055;-55
2023/09/14 04:25:42;;;;;;;2.58;1.40;;;14.80;99.90;;;;;;5134192;27;20487;-60
2023/09/14 04:28:07;;;;;;;5.40;1.52;;;14.10;99.90;;;;;;5134515;27;20088;-41
2023/09/14 04:30:45;;;;;;;2.38;1.00;;;13.70;99.90;;;;;;5134389;27;20421;-41
2023/09/14 04:33:15;;;;;;;7.35;1.52;;;14.70;99.90;;;;;;5134270;27;20043;-51
2023/09/14 04:35:41;;;;;;;3.95;1.48;;;13.00;99.90;;;;;;5134285;27;20027;-54
2023/09/14 04:38:07;;;;;;;3.53;1.42;;;14.30;99.90;;;;;;5134042;27;20376;-54
2023/09/14 04:40:38;;;;;;;4.43;1.90;;;14.60;99.90;;;;;;5134632;27;20029;-48
2023/09/14 04:43:04;;;;;;;2.80;1.23;;;13.40;99.90;;;;;;5134067;27;20023;-52
2023/09/14 04:45:30;;;;;;;3.63;1.23;;;;;;;;;;5134405;27;20015;-43
2023/09/14 04:47:57;;;;;;;2.95;1.40;;;13.60;99.90;;;;;;5133995;27;20033;-54
2023/09/14 04:50:22;;;;;;;5.05;1.45;;;14.20;99.90;;;;;;5120658;27;20479;-56
2023/09/14 04:52:48;;;;;;;4.13;1.45;;;13.70;99.90;;;;;;5134276;27;20034;-41
2023/09/14 04:55:14;;;;;;;2.58;1.20;;;;;;;;;;5120318;27;20031;-42
2023/09/14 04:57:40;;;;;;;2.83;1.15;;;14.90;99.90;;;;;;5133114;27;20057;-51
2023/09/14 05:00:08;;;;;;;4.97;1.42;;;12.70;99.90;;;;;;5133791;27;20118;-49
2023/09/14 05:02:33;;;;;;;5.18;1.40;;;14.70;99.90;;;;;;5133878;27;20019;-53
2023/09/14 05:05:00;;;;;;;4.53;1.30;;;;;;;;;;5134138;27;20023;-61
2023/09/14 05:07:25;;;;;;;6.55;1.23;;;13.90;99.90;;;;;;5133559;27;20041;-48
2023/09/14 05:09:51;;;;;;;3.88;1.05;;;9.60;99.90;;;;;;5133663;27;20043;-56
2023/09/14 05:12:17;;;;;;;2.28;1.10;;;15.00;99.90;;;;;;5114723;27;20023;-55
2023/09/14 05:14:43;;;;;;;2.25;1.25;;;;;;;;;;5115446;27;20058;-51
2023/09/14 05:17:08;;;;;;;5.30;1.10;;;;;;;;;;5133504;27;20026;-48
2023/09/14 05:19:34;;;;;;;4.10;1.58;;;9.60;99.90;;;;;;5133260;27;20019;-50
2023/09/14 05:22:00;;;;;;;3.92;1.45;;;13.80;99.90;;;;;;5133779;27;20383;-45
2023/09/14 05:24:25;;;;;;;3.85;1.58;;;9.90;99.90;;;;;;5133579;27;20031;-57
2023/09/14 05:26:52;;;;;;;4.93;1.20;;;14.90;99.90;;;;;;5127190;27;20034;-52
2023/09/14 05:29:18;;;;;;;3.35;1.20;;;13.40;99.90;;;;;;5120052;27;20126;-57
2023/09/14 05:31:43;;;;;;;2.15;0.93;;;10.70;99.90;;;;;;5119981;27;20107;-49
2023/09/14 05:34:09;;;;;;;2.70;1.35;;;13.20;99.90;;;;;;5129189;27;20098;-47
2023/09/14 05:36:34;;;;;;;4.75;1.38;;;10.20;99.90;;;;;;5124001;27;20076;-49
2023/09/14 05:39:00;;;;;;;4.68;1.30;;;12.50;99.90;;;;;;5121567;27;20127;-51
2023/09/14 05:41:26;;;;;;;6.30;1.70;;;12.50;99.90;;;;;;5115203;27;20027;-51
2023/09/14 05:43:51;;;;;;;3.72;1.35;;;12.50;99.90;;;;;;5112976;28;20019;-45
2023/09/14 05:46:17;;;;;;;2.65;1.30;;;12.50;99.90;;;;;;5120571;27;20066;-55
2023/09/14 05:48:42;;;;;;;3.28;1.48;;;12.50;99.90;;;;;;5122876;27;20078;-54
2023/09/14 05:51:08;;;;;;;5.45;1.40;;;12.40;99.90;;;;;;5129989;27;20106;-52
2023/09/14 05:53:34;;;;;;;5.40;1.45;;;12.40;99.90;;;;;;5128741;27;20031;-51
2023/09/14 05:56:00;;;;;;;3.33;1.70;;;12.40;99.90;;;;;;5133228;27;20030;-46
2023/09/14 05:58:26;;;;;;;5.68;1.65;;;12.40;99.90;;;;;;5133148;27;20027;-42
2023/09/14 06:00:52;;;;;;;4.38;1.40;;;12.50;99.90;;;;;;5133007;27;20046;-45
2023/09/14 06:03:18;;;;;;;4.72;1.60;;;12.50;99.90;;;;;;5132852;27;20427;-51
2023/09/14 06:05:44;;;;;;;4.40;2.00;;;12.50;99.90;;;;;;5132687;27;20019;-48
2023/09/14 06:08:10;;;;;;;3.92;1.80;;;12.50;99.90;;;;;;5132182;27;20053;-54
2023/09/14 06:10:36;;;;;;;2.95;1.58;;;12.50;99.90;;;;;;5132681;27;20027;-46
2023/09/14 06:13:01;;;;;;;3.65;1.58;;;12.60;99.90;;;;;;5132988;27;20364;-52
2023/09/14 06:15:27;;;;;;;3.97;1.85;;;12.70;99.90;;;;;;5132924;27;20039;-55
2023/09/14 06:17:53;;;;;;;3.17;1.45;;;12.60;99.90;;;;;;5132062;27;20379;-55
2023/09/14 06:20:18;;;;;;;5.15;1.90;;;12.70;99.90;;;;;;5132530;27;20045;-53
2023/09/14 06:22:44;;;;;;;5.28;1.70;;;12.70;99.90;;;;;;5132182;27;20030;-57
2023/09/14 06:25:10;;;;;;;5.60;1.92;;;12.80;99.90;;;;;;5132651;27;20076;-53
2023/09/14 06:27:35;;;;;;;4.63;1.50;;;12.80;99.90;;;;;;5132477;27;20493;-51
2023/09/14 06:30:02;;;;;;;4.03;2.20;;;12.90;99.90;;;;;;5132514;27;20436;-56
2023/09/14 06:32:28;;;;;;;7.78;2.80;;;12.90;99.90;;;;;;5132664;27;20034;-56
2023/09/14 06:34:54;;;;;;;6.60;2.05;;;13.00;99.90;;;;;;5132703;27;20074;-56
2023/09/14 06:37:20;;;;;;;6.57;2.20;;;13.10;99.90;;;;;;5127576;27;20035;-42
2023/09/14 06:39:46;;;;;;;6.65;1.77;;;13.20;99.90;;;;;;5122980;27;20130;-52
2023/09/14 06:42:11;;;;;;;6.63;1.80;;;13.40;99.90;;;;;;5116090;27;20098;-55
2023/09/14 06:44:37;;;;;;;3.75;1.88;;;13.50;99.90;;;;;;5127309;27;20126;-42
2023/09/14 06:47:02;;;;;;;4.50;2.00;;;13.50;99.90;;;;;;5115984;27;20062;-47
2023/09/14 06:49:28;;;;;;;7.93;1.80;;;13.60;99.90;;;;;;5128271;27;20035;-57
2023/09/14 06:51:54;;;;;;;4.38;1.80;;;13.60;99.90;;;;;;5122626;27;20035;-50
2023/09/14 06:54:20;;;;;;;5.25;1.80;;;13.70;99.90;;;;;;5120020;27;20023;-50
2023/09/14 06:56:45;;;;;;;3.60;2.10;;;13.70;99.90;;;;;;5127677;27;20030;-54
2023/09/14 06:59:11;;;;;;;5.18;2.13;;;13.80;99.90;;;;;;5125270;27;20391;-57
2023/09/14 07:01:37;;;;;;;7.35;2.22;;;14.00;99.90;;;;;;5114834;27;20518;-44
2023/09/14 07:04:03;;;;;;;3.47;1.70;;;14.10;99.90;;;;;;5128041;27;20037;-57
2023/09/14 07:06:28;;;;;;;4.38;2.30;;;14.30;99.90;;;;;;5118119;27;20023;-49
2023/09/14 07:08:54;;;;;;;3.78;1.80;;;14.50;99.90;;;;;;5118513;27;20038;-55
2023/09/14 07:11:20;;;;;;;3.28;1.70;;;14.70;99.90;;;;;;5117817;27;20469;-60
2023/09/14 07:13:45;;;;;;;7.05;2.20;;;15.00;99.90;;;;;;5126959;27;20020;-59
2023/09/14 07:16:11;;;;;;;4.60;1.75;;;15.20;99.90;;;;;;5116488;27;20562;-58
2023/09/14 07:18:36;;;;;;;4.93;1.83;;;15.60;99.90;;;;;;5114706;27;20024;-45
2023/09/14 07:21:02;;;;;;;3.53;1.80;;;15.80;99.90;;;;;;5116978;27;20052;-57
2023/09/14 07:23:30;;;;;;;2.97;1.65;;;16.10;99.90;;;;;;5112126;27;20034;-53
2023/09/14 07:25:56;;;;;;;3.13;1.73;;;16.30;99.90;;;;;;5117679;27;20042;-42
2023/09/14 07:28:22;;;;;;;3.50;1.63;;;16.20;99.90;;;;;;5116265;27;20634;-54
2023/09/14 07:30:51;;;;;;;5.82;1.88;;;16.30;99.90;;;;;;5117034;27;20019;-50
2023/09/14 07:33:18;;;;;;;5.07;1.85;;;16.40;99.90;;;;;;5114828;27;20479;-56
2023/09/14 07:35:47;;;;;;;2.83;1.48;;;16.60;99.90;;;;;;5117287;27;20035;-47
2023/09/14 07:38:13;;;;;;;7.97;1.70;;;17.00;99.90;;;;;;5113121;27;20036;-59
2023/09/14 07:40:39;;;;;;;3.00;1.73;;;17.30;99.90;;;;;;5113415;28;20031;-57
2023/09/14 07:43:05;;;;;;;3.92;1.95;;;17.60;99.90;;;;;;5111052;28;20015;-54
2023/09/14 07:45:33;;;;;;;4.00;1.85;;;17.80;99.90;;;;;;5111846;28;20330;-59
2023/09/14 07:48:00;;;;;;;6.85;1.92;;;18.00;99.90;;;;;;5127780;28;20031;-51
2023/09/14 07:50:26;;;;;;;4.20;1.90;;;18.50;99.90;;;;;;5129480;28;20046;-57
2023/09/14 07:52:51;;;;;;;3.85;1.75;;;19.00;99.90;;;;;;5121207;27;20024;-50
2023/09/14 07:55:17;;;;;;;3.30;1.48;;;19.10;99.90;;;;;;5127329;27;20039;-55
2023/09/14 07:57:42;;;;;;;5.85;2.03;;;19.40;99.90;;;;;;5123859;28;20023;-44
2023/09/14 08:00:09;;;;;;;5.03;1.70;;;19.80;99.90;;;;;;5116569;27;20066;-51
2023/09/14 08:02:34;;;;;;;4.57;2.15;;;20.30;99.90;;;;;;5122112;28;20492;-46
2023/09/14 08:05:00;;;;;;;6.55;1.83;;;20.80;99.90;;;;;;5111435;28;20030;-52
2023/09/14 08:07:27;;;;;;;8.00;1.80;;;21.50;99.90;;;;;;5115189;27;20060;-54
2023/09/14 08:09:52;;;;;;;3.97;1.38;;;22.00;99.90;;;;;;5091581;28;20035;-55
2023/09/14 08:12:18;;;;;;;3.85;1.50;;;22.30;99.90;;;;;;5118003;28;20068;-44
2023/09/14 08:14:44;;;;;;;4.13;1.65;;;22.20;99.90;;;;;;5126926;27;20029;-60
2023/09/14 08:17:11;;;;;;;3.70;1.80;;;22.40;99.90;;;;;;5117787;27;20042;-56
2023/09/14 08:19:36;;;;;;;2.80;1.52;;;22.60;99.90;;;;;;5111907;28;20092;-55
2023/09/14 08:22:03;;;;;;;3.28;1.55;;;22.80;99.90;;;;;;5114652;28;20417;-52
2023/09/14 08:24:29;;;;;;;4.95;2.15;;;22.60;99.90;;;;;;5112748;28;20054;-50
2023/09/14 08:26:55;;;;;;;4.47;1.60;;;23.00;99.90;;;;;;5112817;28;20028;-56
2023/09/14 08:29:21;;;;;;;3.35;1.60;;;23.20;99.90;;;;;;5113311;28;20024;-49
2023/09/14 08:31:49;;;;;;;4.95;2.00;;;23.50;99.90;;;;;;5125348;28;20023;-58
2023/09/14 08:34:14;;;;;;;5.47;2.00;;;23.60;99.90;;;;;;5126276;27;20035;-55
2023/09/14 08:36:41;;;;;;;5.45;1.83;;;23.80;99.90;;;;;;5123737;27;20094;-44
2023/09/14 08:39:06;;;;;;;6.07;2.35;;;24.10;99.90;;;;;;5128260;28;20491;-56
2023/09/14 08:41:37;;;;;;;6.43;2.05;;;24.40;99.90;;;;;;5125395;27;20097;-46
2023/09/14 08:44:04;;;;;;;2.63;1.50;;;24.70;99.90;;;;;;5114129;28;20016;-55
2023/09/14 08:46:32;;;;;;;3.42;1.80;;;25.00;99.90;;;;;;5120300;27;20027;-47
2023/09/14 08:48:59;;;;;;;4.63;1.88;;;25.30;99.90;;;;;;5122769;27;20035;-57
2023/09/14 08:51:27;;;;;;;6.50;1.88;;;25.40;99.90;;;;;;5115136;27;20031;-44
2023/09/14 08:53:53;;;;;;;4.55;1.67;;;25.60;99.90;;;;;;5117080;27;20023;-52
2023/09/14 08:56:21;;;;;;;4.78;1.95;;;25.90;99.90;;;;;;5124965;27;20035;-52
2023/09/14 08:58:47;;;;;;;4.90;1.70;;;26.20;99.90;;;;;;5122076;27;20031;-58
2023/09/14 09:01:14;;;;;;;6.90;2.00;;;26.20;99.90;;;;;;5118729;27;20034;-56
2023/09/14 09:03:39;;;;;;;2.83;1.30;;;26.40;99.90;;;;;;5120567;27;20019;-53
2023/09/14 09:06:05;;;;;;;4.78;1.55;;;26.50;99.90;;;;;;5115725;27;20095;-60
2023/09/14 09:08:32;;;;;;;4.05;1.52;;;26.70;99.90;;;;;;5128009;27;20536;-57
2023/09/14 09:11:00;;;;;;;1.83;0.93;;;26.80;99.90;;;;;;5113560;28;20026;-45
2023/09/14 09:13:36;;;;;;;3.60;1.40;;;26.70;99.90;;;;;;5113732;27;20024;-56
2023/09/14 09:16:02;;;;;;;2.25;0.68;;;26.70;99.90;;;;;;5124997;27;20027;-56
2023/09/14 09:18:27;;;;;;;2.40;1.20;;;26.60;99.90;;;;;;5115821;27;20020;-54
2023/09/14 09:20:53;;;;;;;3.08;1.00;;;26.80;99.90;;;;;;5124467;27;20023;-48
2023/09/14 09:23:22;;;;;;;2.97;1.10;;;27.20;99.90;;;;;;5123916;27;20441;-46
2023/09/14 09:25:48;;;;;;;;;;;27.40;99.90;;;;;;5126032;27;20015;-46
2023/09/14 09:28:14;;;;;;;4.43;2.30;;;27.50;99.90;;;;;;5119393;27;19911;-50
2023/09/14 09:30:40;;;;;;;5.82;1.80;;;27.60;99.90;;;;;;5118906;27;20361;-42
2023/09/14 09:33:07;;;;;;;2.25;1.33;;;27.80;99.70;;;;;;5126138;27;20020;-45
2023/09/14 09:35:34;;;;;;;2.97;1.25;;;27.80;99.70;;;;;;5127915;27;20483;-54
2023/09/14 09:38:10;;;;;;;5.22;1.50;;;27.60;99.80;;;;;;5123546;27;20491;-43
2023/09/14 09:40:43;;;;;;;2.50;1.15;;;27.70;99.20;;;;;;5093496;28;20019;-53
2023/09/14 09:43:13;;;;;;;2.33;1.40;;;27.60;99.50;;;;;;5112649;28;20024;-47
2023/09/14 09:45:42;;;;;;;3.45;1.40;;;27.70;98.80;;;;;;5114404;27;20076;-56
2023/09/14 09:48:09;;;;;;;4.32;1.30;;;27.90;97.70;;;;;;5118647;27;20019;-50
2023/09/14 09:50:35;;;;;;;4.25;0.98;;;27.90;99.20;;;;;;5120411;27;20031;-47
2023/09/14 09:53:02;;;;;;;2.63;1.30;;;27.80;99.60;;;;;;5133355;27;20042;-54
2023/09/14 09:55:29;;;;;;;2.80;1.00;;;28.00;97.70;;;;;;5116859;27;20020;-50
2023/09/14 09:57:58;;;;;;;2.38;1.25;;;28.10;97.40;;;;;;5117360;27;20020;-50
2023/09/14 10:00:42;;;;;;;1.60;0.93;;;28.30;98.40;;;;;;5125792;27;20039;-50
2023/09/14 10:03:08;;;;;;;1.65;0.80;;;28.80;98.50;;;;;;5115276;27;20020;-52
2023/09/14 10:05:39;;;;;;;3.00;1.13;;;29.10;96.50;;;;;;5121584;27;20034;-54
2023/09/14 10:08:17;;;;;;;1.63;0.80;;;29.70;95.90;;;;;;5133239;27;20115;-48
2023/09/14 10:10:51;;;;;;;2.03;0.98;;;29.70;95.90;;;;;;5133201;27;20034;-52
2023/09/14 10:13:22;;;;;;;1.92;1.00;;;29.50;96.30;;;;;;5132970;27;20035;-46
2023/09/14 10:15:58;;;;;;;2.53;1.38;;;28.60;95.90;;;;;;5132655;27;20100;-48
2023/09/14 10:18:25;;;;;;;2.22;1.00;;;27.50;95.50;;;;;;5132847;27;20395;-49
2023/09/14 10:20:52;;;;;;;3.15;1.05;;;26.50;96.40;;;;;;5114267;27;20060;-51
2023/09/14 10:23:22;;;;;;;3.03;1.42;;;25.90;97.30;;;;;;5132717;27;20023;-57
2023/09/14 10:25:49;;;;;;;3.17;0.80;;;26.30;98.50;;;;;;5132754;27;20210;-59
2023/09/14 10:28:16;;;;;;;2.90;1.27;;;26.60;99.40;;;;;;5132572;27;20066;-59
2023/09/14 10:30:43;;;;;;;3.72;1.20;;;27.20;97.70;;;;;;5132426;27;20019;-50
2023/09/14 10:33:10;;;;;;;3.50;1.15;;;27.20;97.40;;;;;;5126587;27;20069;-50
2023/09/14 10:35:39;;;;;;;3.17;1.05;;;27.20;97.20;;;;;;5115923;27;20045;-52
2023/09/14 10:38:06;;;;;;;3.22;1.40;;;27.30;96.20;;;;;;5111670;28;20051;-60
2023/09/14 10:40:36;;;;;;;2.83;1.25;;;27.30;95.70;;;;;;5111993;28;20035;-57
2023/09/14 10:43:03;;;;;;;3.08;1.20;;;27.60;97.50;;;;;;5111518;28;20023;-49
2023/09/14 10:45:35;;;;;;;3.28;0.80;;;28.00;96.50;;;;;;5111894;28;20035;-51
2023/09/14 10:48:04;;;;;;;3.20;1.10;;;28.70;95.90;;;;;;5111561;28;20020;-49
2023/09/14 10:50:30;;;;;;;;;;;29.10;95.70;;;;;;5111887;28;20030;-54
2023/09/14 10:52:56;;;;;;;3.58;1.17;;;29.50;94.70;;;;;;5111701;28;19927;-56
2023/09/14 10:55:25;;;;;;;3.03;0.90;;;29.60;93.80;;;;;;5112510;27;20039;-48
2023/09/14 10:57:52;;;;;;;2.17;1.08;;;30.00;94.50;;;;;;5132351;27;20019;-46
2023/09/14 11:00:38;;;;;;;3.33;1.05;;;30.20;94.20;;;;;;5125003;27;20030;-60
2023/09/14 11:03:05;;;;;;;3.10;1.17;;;30.30;93.50;;;;;;5120943;27;20106;-47
2023/09/14 11:05:47;;;;;;;1.58;0.88;;;30.20;93.70;;;;;;5129836;27;20027;-62
2023/09/14 11:08:14;;;;;;;4.38;1.50;;;29.90;92.60;;;;;;5127610;27;20027;-55
2023/09/14 11:10:56;;;;;;;2.67;1.00;;;29.70;92.60;;;;;;5116914;27;20110;-40
2023/09/14 11:13:25;;;;;;;2.65;1.30;;;28.80;92.80;;;;;;5121834;27;20039;-44
2023/09/14 11:16:05;;;;;;;2.20;1.13;;;28.10;94.00;;;;;;5128221;27;20106;-47
2023/09/14 11:18:43;;;;;;;1.65;1.02;;;27.50;93.10;;;;;;5126711;27;20031;-51
2023/09/14 11:21:29;;;;;;;1.92;0.93;;;27.30;96.10;;;;;;5116364;27;20444;-43
2023/09/14 11:23:57;;;;;;;1.88;1.23;;;26.90;94.10;;;;;;5105594;27;20092;-51
2023/09/14 11:26:33;;;;;;;2.40;1.13;;;26.40;95.00;;;;;;5109896;28;20028;-53
2023/09/14 11:29:00;;;;;;;2.97;1.08;;;25.80;94.30;;;;;;5110150;28;20049;-49
2023/09/14 11:31:53;;;;;;;1.25;0.82;;;25.10;95.80;;;;;;5116818;27;20027;-55
2023/09/14 11:34:22;;;;;;;2.40;1.05;;;24.80;97.50;;;;;;5110646;28;20457;-58
2023/09/14 11:36:51;;;;;;;;;;;24.70;96.20;;;;;;5111151;28;20092;-54
2023/09/14 11:39:16;;;;;;;3.72;0.90;;;24.60;96.50;;;;;;5110729;28;19904;-57
2023/09/14 11:41:49;;;;;;;2.03;0.90;;;25.10;96.70;;;;;;5109127;28;20047;-48
2023/09/14 11:44:16;;;;;;;1.55;0.80;;;25.50;94.90;;;;;;5108937;28;20031;-54
2023/09/14 11:46:44;;;;;;;2.35;1.00;;;26.10;95.30;;;;;;5109570;28;20502;-50
2023/09/14 11:49:11;;;;;;;1.77;0.70;;;26.50;95.60;;;;;;5110272;28;20032;-47
2023/09/14 11:51:37;;;;;;;3.85;1.17;;;27.00;94.70;;;;;;5110488;28;20016;-50
2023/09/14 11:54:07;;;;;;;2.80;1.10;;;27.30;94.40;;;;;;5110559;28;20494;-46
2023/09/14 11:56:33;;;;;;;1.67;0.95;;;27.20;94.30;;;;;;5121728;27;20076;-53
2023/09/14 11:59:01;;;;;;;1.70;0.93;;;27.70;93.90;;;;;;5131283;27;20019;-50
2023/09/14 12:01:28;;;;;;;1.27;0.75;;;27.60;92.30;;;;;;5131245;27;20034;-56
2023/09/14 12:03:55;;;;;;;1.60;0.75;;;27.50;93.20;;;;;;5130991;27;20059;-51
2023/09/14 12:06:22;;;;;;;1.77;0.70;;;27.60;94.50;;;;;;5131130;28;20019;-55
2023/09/14 12:08:48;;;;;;;1.58;0.85;;;27.50;93.50;;;;;;5130482;28;20046;-52
2023/09/14 12:11:15;;;;;;;1.88;0.90;;;27.10;93.50;;;;;;5130748;28;20020;-57
2023/09/14 12:13:54;;;;;;;2.20;0.90;;;26.50;94.60;;;;;;5131173;28;20019;-47
2023/09/14 12:16:24;;;;;;;1.75;0.98;;;25.90;93.80;;;;;;5130983;27;20526;-54
2023/09/14 12:18:51;;;;;;;3.30;0.90;;;25.40;94.10;;;;;;5131002;27;20058;-60
2023/09/14 12:21:19;;;;;;;2.22;1.00;;;25.30;95.90;;;;;;5131572;27;20023;-52
2023/09/14 12:23:47;;;;;;;1.30;0.63;;;25.50;95.30;;;;;;5135232;27;20023;-56
2023/09/14 12:26:18;;;;;;;2.55;0.90;;;26.20;97.40;;;;;;5135116;27;20021;-57
2023/09/14 12:28:56;;;;;;;3.80;0.90;;;26.70;95.00;;;;;;5134758;27;20479;-55
2023/09/14 12:31:24;;;;;;;1.13;0.80;;;27.00;93.10;;;;;;5134428;27;20072;-48
2023/09/14 12:33:51;;;;;;;0.90;0.60;;;27.20;93.40;;;;;;5134675;27;20023;-54
2023/09/14 12:36:18;;;;;;;1.20;0.60;;;27.40;92.50;;;;;;5135019;27;20015;-55
2023/09/14 12:38:46;;;;;;;1.27;0.68;;;26.80;91.40;;;;;;5134426;27;20043;-56
2023/09/14 12:41:12;;;;;;;0.82;0.50;;;26.40;93.00;;;;;;5134537;27;20011;-52
2023/09/14 12:43:38;;;;;;;1.52;0.75;;;26.30;92.90;;;;;;5134623;27;20387;-52
2023/09/14 12:46:04;;;;;;;1.08;0.60;;;26.20;93.50;;;;;;5134511;27;20015;-53
2023/09/14 12:48:30;;;;;;;1.63;0.77;;;26.10;92.10;;;;;;5134673;27;20043;-54
2023/09/14 12:50:59;;;;;;;0.85;0.50;;;26.00;92.60;;;;;;5134336;27;20467;-55
2023/09/14 12:53:27;;;;;;;1.63;0.75;;;25.90;92.90;;;;;;5134480;27;20532;-54